Sanlucar de Barrameda, Spain
Current Conditions -  °F | °C
As of 6:00 AM on Tuesday 23 Dec 2014 (Local Time) from LERT Reporting Station
Clear Clear  
Wind Chill: 42°   Ceiling: Unl
Heat Index: 46°   Visibility: 6mi
Dew Point: 45°   Wind: 9mph
Humidity: 93%   Direction: 20°NNE
Pressure: 30.3"   Gusts: NA
Location:  36.78°N, 6.35°W
Report Text: LERT 230500Z 02008KT CAVOK 08/07 Q1026 NOSIG
Loading
Personal Weather Stations






























Interactive Weather Map New forecast layout! Learn more

10-Day Weather Forecast

Advertisements
Track Severe Weather on mobile